createdAt,value
2022-07-29T00:02:25.425Z,17.36
2022-07-29T00:04:52.060Z,17.34
2022-07-29T00:07:18.818Z,17.34
2022-07-29T00:09:51.220Z,17.30
2022-07-29T00:12:25.058Z,17.30
2022-07-29T00:14:57.219Z,17.24
2022-07-29T00:17:25.671Z,17.25
2022-07-29T00:19:52.673Z,17.24
2022-07-29T00:22:20.131Z,17.20
2022-07-29T00:24:49.456Z,17.16
2022-07-29T00:27:16.094Z,17.13
2022-07-29T00:29:42.805Z,17.13
2022-07-29T00:32:12.095Z,17.08
2022-07-29T00:34:57.165Z,17.03
2022-07-29T00:37:23.988Z,17.00
2022-07-29T00:39:50.618Z,16.99
2022-07-29T00:42:17.675Z,16.98
2022-07-29T00:44:44.353Z,16.96
2022-07-29T00:47:13.143Z,16.97
2022-07-29T00:49:41.636Z,16.93
2022-07-29T00:52:10.214Z,16.91
2022-07-29T00:54:44.031Z,16.89
2022-07-29T00:57:12.129Z,16.90
2022-07-29T00:59:38.730Z,16.87
2022-07-29T01:02:05.549Z,16.87
2022-07-29T01:04:32.963Z,16.81
2022-07-29T01:07:01.974Z,16.78
2022-07-29T01:09:40.850Z,16.82
2022-07-29T01:12:22.522Z,16.82
2022-07-29T01:14:51.033Z,16.82
2022-07-29T01:17:56.222Z,16.80
2022-07-29T01:20:32.061Z,16.78
2022-07-29T01:23:04.772Z,16.76
2022-07-29T01:25:46.817Z,16.75
2022-07-29T01:29:11.014Z,16.77
2022-07-29T01:32:01.200Z,16.78
2022-07-29T01:34:31.072Z,16.80
2022-07-29T01:37:38.840Z,16.82
2022-07-29T01:40:07.425Z,16.82
2022-07-29T01:42:43.541Z,16.83
2022-07-29T01:45:16.636Z,16.82
2022-07-29T01:47:47.846Z,16.85
2022-07-29T01:50:18.789Z,16.83
2022-07-29T01:52:53.677Z,16.82
2022-07-29T01:55:23.395Z,16.80
2022-07-29T01:57:50.753Z,16.68
2022-07-29T02:00:18.534Z,16.60
2022-07-29T02:02:47.915Z,16.50
2022-07-29T02:05:18.562Z,16.45
2022-07-29T02:07:48.566Z,16.43
2022-07-29T02:10:18.579Z,16.44
2022-07-29T02:12:50.793Z,16.45
2022-07-29T02:15:19.129Z,16.42
2022-07-29T02:17:56.061Z,16.42
2022-07-29T02:20:26.071Z,16.35
2022-07-29T02:22:55.680Z,16.25
2022-07-29T02:25:25.048Z,16.23
2022-07-29T02:28:06.163Z,16.15
2022-07-29T02:30:33.953Z,16.11
2022-07-29T02:33:01.873Z,16.05
2022-07-29T02:35:29.010Z,16.05
2022-07-29T02:38:21.580Z,16.05
2022-07-29T02:40:50.854Z,16.02
2022-07-29T02:43:19.610Z,16.01
2022-07-29T02:45:48.352Z,15.98
2022-07-29T02:48:22.418Z,15.94
2022-07-29T02:51:01.739Z,15.90
2022-07-29T02:53:32.740Z,15.81
2022-07-29T02:56:25.489Z,15.77
2022-07-29T02:58:59.608Z,15.71
2022-07-29T03:01:31.230Z,15.66
2022-07-29T03:04:01.941Z,15.63
2022-07-29T03:06:38.105Z,15.62
2022-07-29T03:09:12.929Z,15.58
2022-07-29T03:11:46.191Z,15.55
2022-07-29T03:14:19.304Z,15.46
2022-07-29T03:16:47.741Z,15.38
2022-07-29T03:19:14.834Z,15.36
2022-07-29T03:21:41.476Z,15.32
2022-07-29T03:24:10.513Z,15.27
2022-07-29T03:26:37.870Z,15.29
2022-07-29T03:29:04.541Z,15.28
2022-07-29T03:31:32.153Z,15.27
2022-07-29T03:34:00.258Z,15.25
2022-07-29T03:36:27.070Z,15.25
2022-07-29T03:38:54.087Z,15.21
2022-07-29T03:41:23.505Z,15.19
2022-07-29T03:43:52.867Z,15.17
2022-07-29T03:46:23.774Z,15.13
2022-07-29T03:48:54.027Z,15.13
2022-07-29T03:51:33.187Z,15.10
2022-07-29T03:54:06.203Z,15.06
2022-07-29T03:56:40.659Z,15.01
2022-07-29T03:59:08.220Z,14.93
2022-07-29T04:01:36.306Z,14.91
2022-07-29T04:04:04.840Z,14.85
2022-07-29T04:06:42.064Z,14.81
2022-07-29T04:09:09.756Z,14.80
2022-07-29T04:12:02.245Z,14.77
2022-07-29T04:14:25.711Z,14.77
2022-07-29T04:16:52.375Z,14.74
2022-07-29T04:19:18.990Z,14.72
2022-07-29T04:21:46.301Z,14.71
2022-07-29T04:24:13.070Z,14.68
2022-07-29T04:26:39.892Z,14.68
2022-07-29T04:29:06.612Z,14.63
2022-07-29T04:31:33.288Z,14.56
2022-07-29T04:33:59.942Z,14.50
2022-07-29T04:36:28.487Z,14.55
2022-07-29T04:38:56.432Z,14.58
2022-07-29T04:41:23.076Z,14.61
2022-07-29T04:43:50.049Z,14.62
2022-07-29T04:46:16.928Z,14.62
2022-07-29T04:48:43.625Z,14.64
2022-07-29T04:51:10.356Z,14.65
2022-07-29T04:53:36.941Z,14.70
2022-07-29T04:56:04.069Z,14.72
2022-07-29T04:58:30.728Z,14.74
2022-07-29T05:00:57.385Z,14.78
2022-07-29T05:03:23.950Z,14.83
2022-07-29T05:05:50.617Z,14.87
2022-07-29T05:08:17.220Z,14.94
2022-07-29T05:10:43.928Z,15.00
2022-07-29T05:13:10.647Z,15.04
2022-07-29T05:15:38.370Z,15.10
2022-07-29T05:18:05.483Z,15.19
2022-07-29T05:20:33.907Z,15.25
2022-07-29T05:23:02.094Z,15.32
2022-07-29T05:25:43.585Z,15.40
2022-07-29T05:28:11.819Z,15.52
2022-07-29T05:30:38.512Z,15.62
2022-07-29T05:33:05.131Z,15.72
2022-07-29T05:35:31.798Z,15.85
2022-07-29T05:37:58.378Z,15.99
2022-07-29T05:40:25.111Z,16.16
2022-07-29T05:42:51.742Z,16.33
2022-07-29T05:45:18.392Z,16.50
2022-07-29T05:47:45.033Z,16.69
2022-07-29T05:50:11.817Z,16.85
2022-07-29T05:52:38.454Z,17.00
2022-07-29T05:55:06.603Z,17.13
2022-07-29T05:57:33.742Z,17.26
2022-07-29T06:00:00.500Z,17.44
2022-07-29T06:02:27.253Z,17.58
2022-07-29T06:04:54.026Z,17.70
2022-07-29T06:07:20.888Z,17.88
2022-07-29T06:09:47.500Z,18.16
2022-07-29T06:12:14.257Z,18.39
2022-07-29T06:14:41.132Z,18.42
2022-07-29T06:17:07.894Z,18.55
2022-07-29T06:19:37.715Z,18.63
2022-07-29T06:22:04.641Z,18.88
2022-07-29T06:24:31.694Z,19.08
2022-07-29T06:26:58.339Z,19.34
2022-07-29T06:29:24.981Z,19.45
2022-07-29T06:31:51.589Z,19.36
2022-07-29T06:34:18.512Z,19.38
2022-07-29T06:36:46.065Z,19.61
2022-07-29T06:39:13.108Z,19.75
2022-07-29T06:41:40.003Z,19.94
2022-07-29T06:44:06.685Z,20.03
2022-07-29T06:46:33.753Z,20.28
2022-07-29T06:49:02.552Z,20.43
2022-07-29T06:51:29.895Z,20.65
2022-07-29T06:54:02.127Z,21.05
2022-07-29T06:56:38.916Z,21.40
2022-07-29T06:59:10.441Z,21.57
2022-07-29T07:01:42.405Z,21.44
2022-07-29T07:04:10.101Z,21.68
2022-07-29T07:06:37.404Z,21.97
2022-07-29T07:09:05.048Z,22.25
2022-07-29T07:11:31.750Z,22.17
2022-07-29T07:14:02.961Z,22.65
2022-07-29T07:16:30.187Z,23.12
2022-07-29T07:18:56.834Z,23.62
2022-07-29T07:21:23.443Z,24.11
2022-07-29T07:23:50.086Z,24.45
2022-07-29T07:26:16.749Z,24.87
2022-07-29T07:28:43.364Z,24.78
2022-07-29T07:31:10.639Z,24.87
2022-07-29T07:33:37.252Z,24.64
2022-07-29T07:36:03.947Z,24.94
2022-07-29T07:38:30.623Z,25.22
2022-07-29T07:40:57.255Z,25.00
2022-07-29T07:43:23.942Z,24.99
2022-07-29T07:45:50.764Z,25.01
2022-07-29T07:48:17.536Z,25.58
2022-07-29T07:50:44.754Z,25.82
2022-07-29T07:53:11.893Z,25.97
2022-07-29T07:58:29.811Z,26.13
2022-07-29T08:00:56.558Z,25.56
2022-07-29T08:03:23.191Z,24.95
2022-07-29T08:05:51.738Z,24.75
2022-07-29T08:08:18.942Z,24.88
2022-07-29T08:10:54.554Z,25.43
2022-07-29T08:13:22.631Z,25.97
2022-07-29T08:15:58.494Z,26.18
2022-07-29T08:18:26.144Z,26.67
2022-07-29T08:20:52.789Z,26.63
2022-07-29T08:23:22.407Z,27.02
2022-07-29T08:25:50.240Z,27.41
2022-07-29T08:28:18.047Z,27.70
2022-07-29T08:30:44.939Z,26.98
2022-07-29T08:33:11.589Z,27.08
2022-07-29T08:35:39.822Z,27.37
2022-07-29T08:38:06.568Z,27.77
2022-07-29T08:40:33.224Z,28.17
2022-07-29T08:43:04.926Z,27.94
2022-07-29T08:45:48.227Z,28.14
2022-07-29T08:48:17.093Z,28.49
2022-07-29T08:50:46.518Z,28.50
2022-07-29T08:53:15.691Z,28.57
2022-07-29T08:55:47.929Z,28.77
2022-07-29T08:58:15.892Z,29.09
2022-07-29T09:00:46.379Z,29.18
2022-07-29T09:03:18.964Z,29.17
2022-07-29T09:05:48.278Z,29.21
2022-07-29T09:08:18.635Z,29.67
2022-07-29T09:10:45.919Z,29.76
2022-07-29T09:13:12.852Z,29.78
2022-07-29T09:16:04.473Z,30.30
2022-07-29T09:18:42.130Z,30.04
2022-07-29T09:21:30.412Z,30.42
2022-07-29T09:24:14.241Z,31.15
2022-07-29T09:26:45.737Z,30.93
2022-07-29T09:29:15.198Z,30.73
2022-07-29T09:31:45.156Z,31.70
2022-07-29T09:34:13.242Z,32.16
2022-07-29T09:36:50.611Z,31.81
2022-07-29T09:39:29.956Z,31.61
2022-07-29T09:41:59.827Z,31.77
2022-07-29T09:44:27.510Z,32.30
2022-07-29T09:47:00.389Z,32.46
2022-07-29T09:49:27.431Z,32.87
2022-07-29T09:52:10.666Z,32.30
2022-07-29T09:54:37.811Z,32.80
2022-07-29T09:57:13.401Z,33.43
2022-07-29T09:59:50.373Z,33.55
2022-07-29T10:02:23.811Z,33.55
2022-07-29T10:04:50.659Z,33.44
2022-07-29T10:07:17.266Z,33.38
2022-07-29T10:09:53.972Z,33.51
2022-07-29T10:12:20.630Z,33.81
2022-07-29T10:14:48.431Z,33.54
2022-07-29T10:17:16.610Z,33.39
2022-07-29T10:19:43.777Z,33.45
2022-07-29T10:22:11.446Z,33.09
2022-07-29T10:24:39.638Z,33.42
2022-07-29T10:27:09.056Z,33.27
2022-07-29T10:29:37.112Z,33.59
2022-07-29T10:32:25.588Z,33.55
2022-07-29T10:35:13.038Z,33.39
2022-07-29T10:38:04.836Z,32.84
2022-07-29T10:41:19.626Z,32.27
2022-07-29T10:43:51.329Z,32.64
2022-07-29T10:46:19.534Z,32.97
2022-07-29T10:49:09.348Z,32.62
2022-07-29T10:51:59.115Z,33.28
2022-07-29T10:57:53.839Z,31.85
2022-07-29T11:00:16.887Z,32.90
2022-07-29T11:02:45.339Z,32.78
2022-07-29T11:05:18.112Z,32.10
2022-07-29T11:08:20.543Z,31.11
2022-07-29T11:10:53.509Z,31.56
2022-07-29T11:13:49.362Z,32.19
2022-07-29T11:16:16.705Z,32.33
2022-07-29T11:19:14.698Z,32.21
2022-07-29T11:21:54.889Z,32.43
2022-07-29T11:24:33.035Z,32.01
2022-07-29T11:27:08.510Z,32.16
2022-07-29T11:29:40.108Z,32.57
2022-07-29T11:32:23.291Z,33.28
2022-07-29T11:35:17.258Z,33.83
2022-07-29T11:37:56.406Z,34.27
2022-07-29T11:40:24.776Z,33.98
2022-07-29T11:42:52.519Z,34.33
2022-07-29T11:45:42.063Z,34.57
2022-07-29T11:48:29.466Z,34.38
2022-07-29T11:50:59.405Z,33.75
2022-07-29T11:53:29.149Z,33.19
2022-07-29T11:56:00.396Z,33.19
2022-07-29T11:58:28.350Z,32.73
2022-07-29T12:00:56.258Z,32.20
2022-07-29T12:03:33.613Z,32.11
2022-07-29T12:06:02.679Z,32.22
2022-07-29T12:08:29.295Z,32.01
2022-07-29T12:10:56.022Z,32.40
2022-07-29T12:13:23.041Z,32.17
2022-07-29T12:16:04.954Z,31.81
2022-07-29T12:18:32.118Z,31.30
2022-07-29T12:21:04.830Z,31.45
2022-07-29T12:23:35.726Z,31.42
2022-07-29T12:26:07.608Z,31.22
2022-07-29T12:28:39.665Z,30.92
2022-07-29T12:31:08.169Z,30.85
2022-07-29T12:33:35.940Z,30.77
2022-07-29T12:36:07.544Z,30.64
2022-07-29T12:38:40.864Z,30.38
2022-07-29T12:41:07.792Z,30.49
2022-07-29T12:43:34.473Z,30.86
2022-07-29T12:46:13.708Z,30.86
2022-07-29T12:48:42.677Z,30.78
2022-07-29T12:51:11.099Z,30.61
2022-07-29T12:53:38.496Z,31.03
2022-07-29T12:56:15.812Z,30.87
2022-07-29T12:58:51.171Z,31.26
2022-07-29T13:01:20.465Z,31.82
2022-07-29T13:03:57.348Z,32.49
2022-07-29T13:06:41.224Z,33.40
2022-07-29T13:09:09.791Z,32.82
2022-07-29T13:11:45.316Z,33.31
2022-07-29T13:14:35.204Z,33.37
2022-07-29T13:17:10.548Z,34.12
2022-07-29T13:19:44.378Z,34.46
2022-07-29T13:22:19.473Z,32.80
2022-07-29T13:24:50.447Z,32.95
2022-07-29T13:27:18.336Z,33.01
2022-07-29T13:29:45.323Z,33.05
2022-07-29T13:32:13.337Z,33.72
2022-07-29T13:34:40.584Z,33.75
2022-07-29T13:37:07.571Z,34.01
2022-07-29T13:39:34.222Z,33.76
2022-07-29T13:42:01.395Z,33.64
2022-07-29T13:44:28.317Z,32.65
2022-07-29T13:46:55.020Z,32.82
2022-07-29T13:49:21.671Z,33.68
2022-07-29T13:51:48.616Z,33.93
2022-07-29T13:54:15.250Z,34.18
2022-07-29T13:56:41.898Z,34.00
2022-07-29T13:59:08.799Z,34.10
2022-07-29T14:01:36.623Z,33.72
2022-07-29T14:04:03.955Z,33.99
2022-07-29T14:06:30.645Z,33.95
2022-07-29T14:08:57.362Z,34.31
2022-07-29T14:11:23.987Z,34.49
2022-07-29T14:13:51.214Z,33.61
2022-07-29T14:16:17.928Z,33.38
2022-07-29T14:18:44.694Z,33.62
2022-07-29T14:21:11.323Z,34.08
2022-07-29T14:23:38.246Z,34.23
2022-07-29T14:26:13.120Z,33.57
2022-07-29T14:28:48.207Z,34.09
2022-07-29T14:31:15.388Z,33.89
2022-07-29T14:33:42.247Z,33.15
2022-07-29T14:36:13.476Z,33.68
2022-07-29T14:38:41.430Z,33.50
2022-07-29T14:41:09.006Z,33.95
2022-07-29T14:43:36.219Z,33.61
2022-07-29T14:46:07.945Z,33.27
2022-07-29T14:48:35.023Z,33.46
2022-07-29T14:51:04.745Z,33.37
2022-07-29T14:53:31.621Z,33.68
2022-07-29T14:56:06.216Z,33.77
2022-07-29T14:58:49.062Z,33.76
2022-07-29T15:01:18.737Z,33.92
2022-07-29T15:03:45.416Z,33.22
2022-07-29T15:06:12.330Z,33.42
2022-07-29T15:08:39.016Z,33.61
2022-07-29T15:11:07.204Z,33.29
2022-07-29T15:13:34.391Z,32.86
2022-07-29T15:16:01.016Z,32.38
2022-07-29T15:18:27.833Z,32.63
2022-07-29T15:20:54.500Z,32.84
2022-07-29T15:23:21.215Z,32.94
2022-07-29T15:25:47.893Z,32.91
2022-07-29T15:28:14.488Z,32.84
2022-07-29T15:30:41.893Z,33.07
2022-07-29T15:33:10.374Z,32.98
2022-07-29T15:35:40.362Z,32.51
2022-07-29T15:38:07.949Z,32.67
2022-07-29T15:40:34.794Z,32.35
2022-07-29T15:43:06.794Z,32.34
2022-07-29T15:45:41.530Z,31.59
2022-07-29T15:48:10.106Z,31.95
2022-07-29T15:50:41.520Z,32.06
2022-07-29T15:53:08.176Z,31.59
2022-07-29T15:55:34.773Z,31.93
2022-07-29T15:58:01.399Z,31.83
2022-07-29T16:00:28.217Z,31.56
2022-07-29T16:02:54.830Z,31.53
2022-07-29T16:05:21.510Z,30.76
2022-07-29T16:07:48.126Z,30.64
2022-07-29T16:10:14.774Z,30.48
2022-07-29T16:12:41.924Z,30.43
2022-07-29T16:15:10.393Z,30.38
2022-07-29T16:17:37.996Z,30.40
2022-07-29T16:20:06.293Z,30.17
2022-07-29T16:22:32.900Z,29.81
2022-07-29T16:24:59.612Z,29.75
2022-07-29T16:27:35.594Z,29.53
2022-07-29T16:30:08.191Z,29.05
2022-07-29T16:32:34.812Z,28.87
2022-07-29T16:35:02.826Z,28.66
2022-07-29T16:37:33.554Z,28.49
2022-07-29T16:40:00.455Z,28.48
2022-07-29T16:42:45.323Z,28.54
2022-07-29T16:45:13.805Z,28.23
2022-07-29T16:47:40.520Z,28.46
2022-07-29T16:50:07.834Z,28.52
2022-07-29T16:52:34.524Z,28.71
2022-07-29T16:55:01.122Z,28.85
2022-07-29T16:57:27.749Z,29.03
2022-07-29T16:59:54.462Z,29.37
2022-07-29T17:02:21.093Z,29.25
2022-07-29T17:04:47.778Z,29.36
2022-07-29T17:07:14.942Z,29.42
2022-07-29T17:09:41.708Z,29.03
2022-07-29T17:12:08.684Z,28.94
2022-07-29T17:14:35.441Z,28.77
2022-07-29T17:17:03.029Z,28.53
2022-07-29T17:19:32.382Z,28.31
2022-07-29T17:22:08.495Z,28.15
2022-07-29T17:24:38.982Z,28.09
2022-07-29T17:27:06.972Z,27.92
2022-07-29T17:29:35.022Z,27.89
2022-07-29T17:32:01.614Z,27.91
2022-07-29T17:34:28.222Z,27.66
2022-07-29T17:36:54.981Z,27.31
2022-07-29T17:39:21.784Z,27.28
2022-07-29T17:41:48.463Z,27.15
2022-07-29T17:44:15.097Z,27.00
2022-07-29T17:46:41.805Z,26.86
2022-07-29T17:49:08.638Z,26.74
2022-07-29T17:51:35.326Z,26.69
2022-07-29T17:54:02.102Z,26.59
2022-07-29T17:56:28.723Z,26.27
2022-07-29T17:58:55.442Z,26.20
2022-07-29T18:01:23.652Z,26.07
2022-07-29T18:03:50.353Z,26.02
2022-07-29T18:06:16.968Z,25.95
2022-07-29T18:08:47.431Z,25.91
2022-07-29T18:11:15.153Z,25.88
2022-07-29T18:13:42.302Z,25.88
2022-07-29T18:16:09.363Z,25.82
2022-07-29T18:18:36.099Z,25.77
2022-07-29T18:21:03.782Z,25.62
2022-07-29T18:23:30.408Z,25.40
2022-07-29T18:25:57.080Z,25.24
2022-07-29T18:28:23.758Z,25.20
2022-07-29T18:30:50.455Z,25.10
2022-07-29T18:33:21.317Z,24.93
2022-07-29T18:35:49.983Z,24.93
2022-07-29T18:38:16.636Z,24.82
2022-07-29T18:40:45.670Z,24.77
2022-07-29T18:43:13.614Z,24.66
2022-07-29T18:45:40.730Z,24.61
2022-07-29T18:48:12.999Z,24.49
2022-07-29T18:50:41.381Z,24.45
2022-07-29T18:53:08.253Z,24.27
2022-07-29T18:55:34.980Z,24.21
2022-07-29T18:58:01.639Z,23.92
2022-07-29T19:00:28.650Z,23.80
2022-07-29T19:02:56.729Z,23.75
2022-07-29T19:05:23.937Z,23.75
2022-07-29T19:07:50.842Z,23.69
2022-07-29T19:10:17.797Z,23.61
2022-07-29T19:12:44.392Z,23.48
2022-07-29T19:15:11.214Z,23.41
2022-07-29T19:17:38.846Z,23.27
2022-07-29T19:20:07.391Z,23.25
2022-07-29T19:22:34.320Z,23.21
2022-07-29T19:25:00.990Z,23.10
2022-07-29T19:27:27.628Z,23.05
2022-07-29T19:29:58.992Z,22.97
2022-07-29T19:32:26.226Z,22.92
2022-07-29T19:35:12.077Z,22.85
2022-07-29T19:37:38.692Z,22.64
2022-07-29T19:40:06.829Z,22.65
2022-07-29T19:42:33.802Z,22.60
2022-07-29T19:45:00.439Z,22.51
2022-07-29T19:47:27.027Z,22.42
2022-07-29T19:49:53.668Z,22.30
2022-07-29T19:52:20.373Z,22.25
2022-07-29T19:54:46.971Z,22.21
2022-07-29T19:57:13.590Z,22.17
2022-07-29T19:59:41.124Z,22.11
2022-07-29T20:02:10.870Z,22.01
2022-07-29T20:04:38.690Z,21.96
2022-07-29T20:07:06.671Z,21.93
2022-07-29T20:09:33.352Z,21.90
2022-07-29T20:11:59.984Z,21.81
2022-07-29T20:14:26.597Z,21.76
2022-07-29T20:16:54.436Z,21.64
2022-07-29T20:19:21.391Z,21.58
2022-07-29T20:21:48.059Z,21.50
2022-07-29T20:24:14.689Z,21.43
2022-07-29T20:26:41.275Z,21.39
2022-07-29T20:29:07.956Z,21.35
2022-07-29T20:31:34.942Z,21.24
2022-07-29T20:34:02.028Z,21.18
2022-07-29T20:36:28.826Z,21.13
2022-07-29T20:38:56.442Z,21.10
2022-07-29T20:41:23.432Z,21.00
2022-07-29T20:43:50.201Z,20.92
2022-07-29T20:46:17.941Z,20.88
2022-07-29T20:48:45.151Z,20.84
2022-07-29T20:51:11.824Z,20.75
2022-07-29T20:53:39.931Z,20.70
2022-07-29T20:56:07.546Z,20.64
2022-07-29T20:58:34.670Z,20.60
2022-07-29T21:01:01.424Z,20.52
2022-07-29T21:03:28.011Z,20.47
2022-07-29T21:05:54.725Z,20.40
2022-07-29T21:08:21.422Z,20.32
2022-07-29T21:10:48.654Z,20.24
2022-07-29T21:13:15.318Z,20.20
2022-07-29T21:15:45.435Z,20.15
2022-07-29T21:18:27.742Z,20.13
2022-07-29T21:20:58.574Z,20.08
2022-07-29T21:23:25.639Z,20.03
2022-07-29T21:25:53.664Z,19.99
2022-07-29T21:28:40.063Z,19.92
2022-07-29T21:31:14.771Z,19.86
2022-07-29T21:33:44.241Z,19.81
2022-07-29T21:36:46.109Z,19.74
2022-07-29T21:38:58.517Z,19.69
2022-07-29T21:41:25.455Z,19.61
2022-07-29T21:43:52.241Z,19.53
2022-07-29T21:46:21.438Z,19.49
2022-07-29T21:48:51.445Z,19.44
2022-07-29T21:51:18.072Z,19.38
2022-07-29T21:53:44.677Z,19.31
2022-07-29T21:56:14.788Z,19.27
2022-07-29T21:58:42.006Z,19.18
2022-07-29T22:01:08.711Z,19.16
2022-07-29T22:03:35.317Z,19.13
2022-07-29T22:06:01.915Z,19.00
2022-07-29T22:08:28.555Z,18.91
2022-07-29T22:10:55.182Z,18.86
2022-07-29T22:13:21.768Z,18.82
2022-07-29T22:15:48.608Z,18.77
2022-07-29T22:18:20.559Z,18.72
2022-07-29T22:20:48.430Z,18.63
2022-07-29T22:23:15.124Z,18.63
2022-07-29T22:25:41.714Z,18.57
2022-07-29T22:28:08.307Z,18.51
2022-07-29T22:30:34.958Z,18.46
2022-07-29T22:33:01.570Z,18.45
2022-07-29T22:35:28.264Z,18.38
2022-07-29T22:37:54.938Z,18.35
2022-07-29T22:40:21.627Z,18.32
2022-07-29T22:42:48.269Z,18.28
2022-07-29T22:45:14.869Z,18.15
2022-07-29T22:47:47.892Z,18.14
2022-07-29T22:50:15.403Z,18.02
2022-07-29T22:52:42.044Z,17.99
2022-07-29T22:55:09.176Z,17.89
2022-07-29T22:57:35.805Z,17.89
2022-07-29T23:00:02.606Z,17.89
2022-07-29T23:02:29.457Z,17.85
2022-07-29T23:04:56.202Z,17.83
2022-07-29T23:07:22.982Z,17.77
2022-07-29T23:09:49.772Z,17.75
2022-07-29T23:12:16.582Z,17.65
2022-07-29T23:14:44.743Z,17.53
2022-07-29T23:17:11.430Z,17.41
2022-07-29T23:19:38.262Z,17.40
2022-07-29T23:22:05.995Z,17.31
2022-07-29T23:24:32.590Z,17.28
2022-07-29T23:26:59.589Z,17.22
2022-07-29T23:29:26.491Z,17.06
2022-07-29T23:31:53.159Z,17.13
2022-07-29T23:34:19.865Z,17.04
2022-07-29T23:36:46.462Z,17.09
2022-07-29T23:39:13.384Z,17.12
2022-07-29T23:41:40.739Z,17.11
2022-07-29T23:44:07.466Z,17.08
2022-07-29T23:46:34.590Z,16.86
2022-07-29T23:49:01.316Z,16.87
2022-07-29T23:51:29.237Z,16.85
2022-07-29T23:53:56.409Z,16.82
2022-07-29T23:56:23.584Z,16.80
2022-07-29T23:58:50.191Z,16.77
